Main page
METAR-TAF:

METAR-TAF

Airports :

Wellington International Airport

Wellington, New Zealand

latitude: 41-20S, longitude: 174-48E, elevation: 12 m

Current weather observation

The report was made 21 minutes ago, at 04:30 UTC
Wind 20 kt from the North
Temperature 21°C
Humidity 73%
Pressure 1015 hPa
Visibility 10 km or more

METAR: NZWN 240430Z AUTO 36020KT 9999 NCD 21/16 Q1015 NOSIG

Time: 17:51 (04:51 UTC)

Forecast

The report was made 5 hours and 48 minutes ago, at 23:03 UTC
Forecast valid from 24 at 00 UTC to 25 at 00 UTC
Wind 10 kt from the North
Visibility 10 km or more
Scattered clouds at a height of 2000 ft
Becoming
from 24 at 00 UTC to 24 at 02 UTC
Wind 20 kt from the North
Probability 30%
from 24 at 10 UTC to 24 at 22 UTC
Broken clouds at a height of 1400 ft

TAF: NZWN 232303Z 2400/2500 36010KT 9999 SCT020 BECMG 2400/2402 36020KT PROB30 2410/2422 BKN014

Weather observations and forecasts of more than 4000 airports (METAR and TAF reports).

The available stations are represented by yellow and red dots on the map.

Hover mouse over dot to see the name of the station.

Then click to see weather observations and forecasts.

To change the map : click on the green buttons with a black cross to zoom in, on the green button with a dash to zoom out, or on the green arrows for adjacent maps.


METAR-TAF: